sensor_id;sensor_type;location;lat;lon;timestamp;P1;durP1;ratioP1;P2;durP2;ratioP2
47778;SDS011;33538;48.432;11.350;2022-12-29T00:00:12;3.22;;;1.88;;
47778;SDS011;33538;48.432;11.350;2022-12-29T00:02:39;4.88;;;2.00;;
47778;SDS011;33538;48.432;11.350;2022-12-29T00:05:07;2.85;;;1.50;;
47778;SDS011;33538;48.432;11.350;2022-12-29T00:07:34;4.80;;;2.13;;
47778;SDS011;33538;48.432;11.350;2022-12-29T00:10:01;3.50;;;2.00;;
47778;SDS011;33538;48.432;11.350;2022-12-29T00:12:29;5.90;;;2.38;;
47778;SDS011;33538;48.432;11.350;2022-12-29T00:14:55;2.97;;;2.05;;
47778;SDS011;33538;48.432;11.350;2022-12-29T00:17:22;4.55;;;2.10;;
47778;SDS011;33538;48.432;11.350;2022-12-29T00:19:49;3.50;;;1.65;;
47778;SDS011;33538;48.432;11.350;2022-12-29T00:22:16;3.92;;;1.75;;
47778;SDS011;33538;48.432;11.350;2022-12-29T00:24:43;3.22;;;2.13;;
47778;SDS011;33538;48.432;11.350;2022-12-29T00:27:11;11.55;;;1.92;;
47778;SDS011;33538;48.432;11.350;2022-12-29T00:29:40;2.80;;;1.50;;
47778;SDS011;33538;48.432;11.350;2022-12-29T00:32:07;7.10;;;1.92;;
47778;SDS011;33538;48.432;11.350;2022-12-29T00:34:35;2.45;;;1.58;;
47778;SDS011;33538;48.432;11.350;2022-12-29T00:37:02;4.03;;;2.25;;
47778;SDS011;33538;48.432;11.350;2022-12-29T00:39:29;4.03;;;1.90;;
47778;SDS011;33538;48.432;11.350;2022-12-29T00:41:56;3.05;;;1.80;;
47778;SDS011;33538;48.432;11.350;2022-12-29T00:44:28;2.85;;;1.50;;
47778;SDS011;33538;48.432;11.350;2022-12-29T00:46:56;3.50;;;1.80;;
47778;SDS011;33538;48.432;11.350;2022-12-29T00:49:23;3.50;;;1.83;;
47778;SDS011;33538;48.432;11.350;2022-12-29T00:51:50;2.72;;;1.67;;
47778;SDS011;33538;48.432;11.350;2022-12-29T00:54:17;5.90;;;1.75;;
47778;SDS011;33538;48.432;11.350;2022-12-29T00:56:45;2.63;;;1.60;;
47778;SDS011;33538;48.432;11.350;2022-12-29T00:59:12;3.10;;;1.50;;
47778;SDS011;33538;48.432;11.350;2022-12-29T01:01:39;2.38;;;1.33;;
47778;SDS011;33538;48.432;11.350;2022-12-29T01:04:08;2.25;;;1.23;;
47778;SDS011;33538;48.432;11.350;2022-12-29T01:06:36;3.53;;;1.60;;
47778;SDS011;33538;48.432;11.350;2022-12-29T01:09:04;2.63;;;1.20;;
47778;SDS011;33538;48.432;11.350;2022-12-29T01:11:31;1.63;;;1.20;;
47778;SDS011;33538;48.432;11.350;2022-12-29T01:13:58;2.00;;;1.08;;
47778;SDS011;33538;48.432;11.350;2022-12-29T01:16:25;2.90;;;1.58;;
47778;SDS011;33538;48.432;11.350;2022-12-29T01:18:52;2.78;;;1.30;;
47778;SDS011;33538;48.432;11.350;2022-12-29T01:21:20;2.38;;;1.50;;
47778;SDS011;33538;48.432;11.350;2022-12-29T01:23:47;3.03;;;1.40;;
47778;SDS011;33538;48.432;11.350;2022-12-29T01:26:14;3.30;;;1.60;;
47778;SDS011;33538;48.432;11.350;2022-12-29T01:28:43;2.38;;;1.50;;
47778;SDS011;33538;48.432;11.350;2022-12-29T01:31:11;2.33;;;1.42;;
47778;SDS011;33538;48.432;11.350;2022-12-29T01:33:39;1.85;;;1.30;;
47778;SDS011;33538;48.432;11.350;2022-12-29T01:36:07;1.88;;;1.20;;
47778;SDS011;33538;48.432;11.350;2022-12-29T01:38:37;1.98;;;1.25;;
47778;SDS011;33538;48.432;11.350;2022-12-29T01:41:04;2.42;;;1.23;;
47778;SDS011;33538;48.432;11.350;2022-12-29T01:43:42;1.33;;;1.10;;
47778;SDS011;33538;48.432;11.350;2022-12-29T01:46:19;1.98;;;1.15;;
47778;SDS011;33538;48.432;11.350;2022-12-29T01:48:49;1.33;;;1.00;;
47778;SDS011;33538;48.432;11.350;2022-12-29T01:51:18;2.15;;;1.08;;
47778;SDS011;33538;48.432;11.350;2022-12-29T01:53:49;1.58;;;0.60;;
47778;SDS011;33538;48.432;11.350;2022-12-29T01:56:16;1.75;;;0.95;;
47778;SDS011;33538;48.432;11.350;2022-12-29T01:58:46;1.27;;;0.68;;
47778;SDS011;33538;48.432;11.350;2022-12-29T02:03:47;2.85;;;0.88;;
47778;SDS011;33538;48.432;11.350;2022-12-29T02:06:16;0.93;;;0.70;;
47778;SDS011;33538;48.432;11.350;2022-12-29T02:08:46;1.73;;;0.90;;
47778;SDS011;33538;48.432;11.350;2022-12-29T02:11:16;1.88;;;0.60;;
47778;SDS011;33538;48.432;11.350;2022-12-29T02:13:43;0.70;;;0.70;;
47778;SDS011;33538;48.432;11.350;2022-12-29T02:16:14;1.85;;;0.90;;
47778;SDS011;33538;48.432;11.350;2022-12-29T02:18:55;1.98;;;1.00;;
47778;SDS011;33538;48.432;11.350;2022-12-29T02:21:52;1.17;;;0.70;;
47778;SDS011;33538;48.432;11.350;2022-12-29T02:24:37;0.68;;;0.57;;
47778;SDS011;33538;48.432;11.350;2022-12-29T02:27:23;3.58;;;0.60;;
47778;SDS011;33538;48.432;11.350;2022-12-29T02:30:07;0.93;;;0.57;;
47778;SDS011;33538;48.432;11.350;2022-12-29T02:32:47;1.40;;;0.47;;
47778;SDS011;33538;48.432;11.350;2022-12-29T02:35:22;1.92;;;0.70;;
47778;SDS011;33538;48.432;11.350;2022-12-29T02:37:56;1.23;;;0.57;;
47778;SDS011;33538;48.432;11.350;2022-12-29T02:40:30;2.42;;;1.00;;
47778;SDS011;33538;48.432;11.350;2022-12-29T02:43:03;0.65;;;0.65;;
47778;SDS011;33538;48.432;11.350;2022-12-29T02:45:45;0.82;;;0.63;;
47778;SDS011;33538;48.432;11.350;2022-12-29T02:48:20;1.35;;;0.90;;
47778;SDS011;33538;48.432;11.350;2022-12-29T02:50:53;0.47;;;0.47;;
47778;SDS011;33538;48.432;11.350;2022-12-29T02:53:25;0.63;;;0.60;;
47778;SDS011;33538;48.432;11.350;2022-12-29T02:55:54;0.73;;;0.63;;
47778;SDS011;33538;48.432;11.350;2022-12-29T02:58:21;0.60;;;0.50;;
47778;SDS011;33538;48.432;11.350;2022-12-29T03:00:56;1.00;;;0.57;;
47778;SDS011;33538;48.432;11.350;2022-12-29T03:03:41;0.52;;;0.50;;
47778;SDS011;33538;48.432;11.350;2022-12-29T03:06:22;1.05;;;0.68;;
47778;SDS011;33538;48.432;11.350;2022-12-29T03:08:59;0.38;;;0.38;;
47778;SDS011;33538;48.432;11.350;2022-12-29T03:11:46;0.40;;;0.40;;
47778;SDS011;33538;48.432;11.350;2022-12-29T03:14:23;0.50;;;0.50;;
47778;SDS011;33538;48.432;11.350;2022-12-29T03:16:57;0.85;;;0.68;;
47778;SDS011;33538;48.432;11.350;2022-12-29T03:19:31;0.73;;;0.52;;
47778;SDS011;33538;48.432;11.350;2022-12-29T03:22:01;0.65;;;0.60;;
47778;SDS011;33538;48.432;11.350;2022-12-29T03:24:31;0.25;;;0.25;;
47778;SDS011;33538;48.432;11.350;2022-12-29T03:27:01;0.88;;;0.63;;
47778;SDS011;33538;48.432;11.350;2022-12-29T03:29:30;0.57;;;0.57;;
47778;SDS011;33538;48.432;11.350;2022-12-29T03:32:01;0.98;;;0.68;;
47778;SDS011;33538;48.432;11.350;2022-12-29T03:34:32;2.03;;;1.13;;
47778;SDS011;33538;48.432;11.350;2022-12-29T03:37:01;0.65;;;0.55;;
47778;SDS011;33538;48.432;11.350;2022-12-29T03:39:32;0.65;;;0.50;;
47778;SDS011;33538;48.432;11.350;2022-12-29T03:41:59;0.65;;;0.57;;
47778;SDS011;33538;48.432;11.350;2022-12-29T03:44:33;1.58;;;0.40;;
47778;SDS011;33538;48.432;11.350;2022-12-29T03:47:02;1.70;;;0.50;;
47778;SDS011;33538;48.432;11.350;2022-12-29T03:49:29;0.55;;;0.35;;
47778;SDS011;33538;48.432;11.350;2022-12-29T03:51:57;0.43;;;0.43;;
47778;SDS011;33538;48.432;11.350;2022-12-29T03:54:24;3.67;;;0.50;;
47778;SDS011;33538;48.432;11.350;2022-12-29T03:56:52;0.98;;;0.68;;
47778;SDS011;33538;48.432;11.350;2022-12-29T03:59:19;0.52;;;0.47;;
47778;SDS011;33538;48.432;11.350;2022-12-29T04:01:45;1.40;;;0.68;;
47778;SDS011;33538;48.432;11.350;2022-12-29T04:04:12;0.70;;;0.60;;
47778;SDS011;33538;48.432;11.350;2022-12-29T04:06:41;0.90;;;0.77;;
47778;SDS011;33538;48.432;11.350;2022-12-29T04:09:09;1.20;;;0.63;;
47778;SDS011;33538;48.432;11.350;2022-12-29T04:11:36;0.68;;;0.40;;
47778;SDS011;33538;48.432;11.350;2022-12-29T04:14:02;2.60;;;0.32;;
47778;SDS011;33538;48.432;11.350;2022-12-29T04:16:29;3.05;;;0.75;;
47778;SDS011;33538;48.432;11.350;2022-12-29T04:18:56;2.38;;;0.77;;
47778;SDS011;33538;48.432;11.350;2022-12-29T04:21:23;0.45;;;0.45;;
47778;SDS011;33538;48.432;11.350;2022-12-29T04:23:51;0.55;;;0.40;;
47778;SDS011;33538;48.432;11.350;2022-12-29T04:26:18;1.20;;;0.50;;
47778;SDS011;33538;48.432;11.350;2022-12-29T04:28:45;1.05;;;0.70;;
47778;SDS011;33538;48.432;11.350;2022-12-29T04:31:11;5.07;;;0.45;;
47778;SDS011;33538;48.432;11.350;2022-12-29T04:33:38;1.00;;;0.70;;
47778;SDS011;33538;48.432;11.350;2022-12-29T04:36:05;0.52;;;0.45;;
47778;SDS011;33538;48.432;11.350;2022-12-29T04:38:32;0.38;;;0.35;;
47778;SDS011;33538;48.432;11.350;2022-12-29T04:41:01;0.93;;;0.60;;
47778;SDS011;33538;48.432;11.350;2022-12-29T04:43:28;1.17;;;0.63;;
47778;SDS011;33538;48.432;11.350;2022-12-29T04:45:55;0.68;;;0.52;;
47778;SDS011;33538;48.432;11.350;2022-12-29T04:48:22;2.38;;;0.80;;
47778;SDS011;33538;48.432;11.350;2022-12-29T04:50:49;0.55;;;0.50;;
47778;SDS011;33538;48.432;11.350;2022-12-29T04:53:16;0.45;;;0.40;;
47778;SDS011;33538;48.432;11.350;2022-12-29T04:55:43;0.55;;;0.47;;
47778;SDS011;33538;48.432;11.350;2022-12-29T04:58:15;1.30;;;0.50;;
47778;SDS011;33538;48.432;11.350;2022-12-29T05:00:47;0.57;;;0.50;;
47778;SDS011;33538;48.432;11.350;2022-12-29T05:03:14;2.10;;;0.52;;
47778;SDS011;33538;48.432;11.350;2022-12-29T05:05:43;1.00;;;0.68;;
47778;SDS011;33538;48.432;11.350;2022-12-29T05:08:10;0.40;;;0.40;;
47778;SDS011;33538;48.432;11.350;2022-12-29T05:10:37;0.70;;;0.57;;
47778;SDS011;33538;48.432;11.350;2022-12-29T05:13:03;0.52;;;0.47;;
47778;SDS011;33538;48.432;11.350;2022-12-29T05:15:32;1.02;;;0.50;;
47778;SDS011;33538;48.432;11.350;2022-12-29T05:17:58;0.68;;;0.47;;
47778;SDS011;33538;48.432;11.350;2022-12-29T05:20:25;0.80;;;0.57;;
47778;SDS011;33538;48.432;11.350;2022-12-29T05:22:52;0.88;;;0.50;;
47778;SDS011;33538;48.432;11.350;2022-12-29T05:25:19;0.73;;;0.50;;
47778;SDS011;33538;48.432;11.350;2022-12-29T05:27:45;0.88;;;0.65;;
47778;SDS011;33538;48.432;11.350;2022-12-29T05:30:12;0.50;;;0.50;;
47778;SDS011;33538;48.432;11.350;2022-12-29T05:32:40;0.30;;;0.30;;
47778;SDS011;33538;48.432;11.350;2022-12-29T05:35:08;0.70;;;0.35;;
47778;SDS011;33538;48.432;11.350;2022-12-29T05:37:35;0.82;;;0.50;;
47778;SDS011;33538;48.432;11.350;2022-12-29T05:40:01;0.20;;;0.20;;
47778;SDS011;33538;48.432;11.350;2022-12-29T05:42:29;0.68;;;0.47;;
47778;SDS011;33538;48.432;11.350;2022-12-29T05:44:56;0.93;;;0.70;;
47778;SDS011;33538;48.432;11.350;2022-12-29T05:47:23;1.38;;;0.68;;
47778;SDS011;33538;48.432;11.350;2022-12-29T05:49:51;0.30;;;0.30;;
47778;SDS011;33538;48.432;11.350;2022-12-29T05:52:18;0.40;;;0.40;;
47778;SDS011;33538;48.432;11.350;2022-12-29T05:54:44;0.98;;;0.40;;
47778;SDS011;33538;48.432;11.350;2022-12-29T05:57:11;0.60;;;0.40;;
47778;SDS011;33538;48.432;11.350;2022-12-29T05:59:38;0.47;;;0.35;;
47778;SDS011;33538;48.432;11.350;2022-12-29T06:02:04;0.55;;;0.47;;
47778;SDS011;33538;48.432;11.350;2022-12-29T06:04:32;0.75;;;0.50;;
47778;SDS011;33538;48.432;11.350;2022-12-29T06:07:00;0.90;;;0.60;;
47778;SDS011;33538;48.432;11.350;2022-12-29T06:09:27;0.95;;;0.52;;
47778;SDS011;33538;48.432;11.350;2022-12-29T06:11:54;3.10;;;0.68;;
47778;SDS011;33538;48.432;11.350;2022-12-29T06:14:20;1.05;;;0.50;;
47778;SDS011;33538;48.432;11.350;2022-12-29T06:16:47;0.40;;;0.40;;
47778;SDS011;33538;48.432;11.350;2022-12-29T06:19:14;0.43;;;0.40;;
47778;SDS011;33538;48.432;11.350;2022-12-29T06:21:42;0.38;;;0.30;;
47778;SDS011;33538;48.432;11.350;2022-12-29T06:24:10;1.05;;;0.45;;
47778;SDS011;33538;48.432;11.350;2022-12-29T06:26:37;2.65;;;0.60;;
47778;SDS011;33538;48.432;11.350;2022-12-29T06:29:04;0.40;;;0.40;;
47778;SDS011;33538;48.432;11.350;2022-12-29T06:31:30;0.50;;;0.50;;
47778;SDS011;33538;48.432;11.350;2022-12-29T06:33:57;0.50;;;0.50;;
47778;SDS011;33538;48.432;11.350;2022-12-29T06:36:30;0.63;;;0.47;;
47778;SDS011;33538;48.432;11.350;2022-12-29T06:38:56;4.25;;;0.63;;
47778;SDS011;33538;48.432;11.350;2022-12-29T06:41:25;0.88;;;0.40;;
47778;SDS011;33538;48.432;11.350;2022-12-29T06:43:57;3.45;;;0.50;;
47778;SDS011;33538;48.432;11.350;2022-12-29T06:46:24;0.63;;;0.40;;
47778;SDS011;33538;48.432;11.350;2022-12-29T06:48:51;1.02;;;0.60;;
47778;SDS011;33538;48.432;11.350;2022-12-29T06:51:18;1.23;;;0.70;;
47778;SDS011;33538;48.432;11.350;2022-12-29T06:53:44;0.38;;;0.38;;
47778;SDS011;33538;48.432;11.350;2022-12-29T06:56:11;1.13;;;0.75;;
47778;SDS011;33538;48.432;11.350;2022-12-29T06:58:39;0.52;;;0.47;;
47778;SDS011;33538;48.432;11.350;2022-12-29T07:01:06;1.95;;;0.60;;
47778;SDS011;33538;48.432;11.350;2022-12-29T07:03:33;1.15;;;0.63;;
47778;SDS011;33538;48.432;11.350;2022-12-29T07:06:00;1.05;;;0.75;;
47778;SDS011;33538;48.432;11.350;2022-12-29T07:08:26;1.23;;;0.70;;
47778;SDS011;33538;48.432;11.350;2022-12-29T07:10:53;0.75;;;0.55;;
47778;SDS011;33538;48.432;11.350;2022-12-29T07:13:20;2.10;;;0.70;;
47778;SDS011;33538;48.432;11.350;2022-12-29T07:15:48;1.50;;;0.50;;
47778;SDS011;33538;48.432;11.350;2022-12-29T07:18:15;1.25;;;0.77;;
47778;SDS011;33538;48.432;11.350;2022-12-29T07:20:42;1.95;;;1.00;;
47778;SDS011;33538;48.432;11.350;2022-12-29T07:23:09;2.08;;;0.70;;
47778;SDS011;33538;48.432;11.350;2022-12-29T07:25:36;3.35;;;0.80;;
47778;SDS011;33538;48.432;11.350;2022-12-29T07:28:03;1.58;;;0.73;;
47778;SDS011;33538;48.432;11.350;2022-12-29T07:30:30;1.77;;;0.75;;
47778;SDS011;33538;48.432;11.350;2022-12-29T07:32:58;0.85;;;0.70;;
47778;SDS011;33538;48.432;11.350;2022-12-29T07:35:25;1.95;;;0.90;;
47778;SDS011;33538;48.432;11.350;2022-12-29T07:37:51;2.30;;;0.70;;
47778;SDS011;33538;48.432;11.350;2022-12-29T07:40:18;1.15;;;0.80;;
47778;SDS011;33538;48.432;11.350;2022-12-29T07:42:45;1.33;;;1.00;;
47778;SDS011;33538;48.432;11.350;2022-12-29T07:45:11;2.17;;;1.05;;
47778;SDS011;33538;48.432;11.350;2022-12-29T07:47:38;5.97;;;1.00;;
47778;SDS011;33538;48.432;11.350;2022-12-29T07:50:07;3.00;;;1.35;;
47778;SDS011;33538;48.432;11.350;2022-12-29T07:52:34;3.40;;;1.52;;
47778;SDS011;33538;48.432;11.350;2022-12-29T07:55:00;2.45;;;1.13;;
47778;SDS011;33538;48.432;11.350;2022-12-29T07:57:27;1.20;;;0.77;;
47778;SDS011;33538;48.432;11.350;2022-12-29T07:59:57;1.38;;;0.88;;
47778;SDS011;33538;48.432;11.350;2022-12-29T08:02:24;1.48;;;1.38;;
47778;SDS011;33538;48.432;11.350;2022-12-29T08:04:51;4.75;;;1.15;;
47778;SDS011;33538;48.432;11.350;2022-12-29T08:07:19;3.33;;;1.00;;
47778;SDS011;33538;48.432;11.350;2022-12-29T08:09:46;1.85;;;0.85;;
47778;SDS011;33538;48.432;11.350;2022-12-29T08:12:13;6.45;;;0.90;;
47778;SDS011;33538;48.432;11.350;2022-12-29T08:17:09;0.85;;;0.70;;
47778;SDS011;33538;48.432;11.350;2022-12-29T08:19:36;1.00;;;0.60;;
47778;SDS011;33538;48.432;11.350;2022-12-29T08:22:03;1.23;;;1.02;;
47778;SDS011;33538;48.432;11.350;2022-12-29T08:24:32;1.35;;;0.80;;
47778;SDS011;33538;48.432;11.350;2022-12-29T08:26:58;1.30;;;0.68;;
47778;SDS011;33538;48.432;11.350;2022-12-29T08:29:37;0.90;;;0.68;;
47778;SDS011;33538;48.432;11.350;2022-12-29T08:32:03;2.25;;;0.80;;
47778;SDS011;33538;48.432;11.350;2022-12-29T08:34:30;1.00;;;0.88;;
47778;SDS011;33538;48.432;11.350;2022-12-29T08:36:57;2.63;;;1.08;;
47778;SDS011;33538;48.432;11.350;2022-12-29T08:39:24;1.42;;;0.80;;
47778;SDS011;33538;48.432;11.350;2022-12-29T08:41:52;2.50;;;0.88;;
47778;SDS011;33538;48.432;11.350;2022-12-29T08:44:19;1.60;;;1.20;;
47778;SDS011;33538;48.432;11.350;2022-12-29T08:46:46;2.53;;;0.80;;
47778;SDS011;33538;48.432;11.350;2022-12-29T08:49:13;1.02;;;0.70;;
47778;SDS011;33538;48.432;11.350;2022-12-29T08:51:40;4.25;;;0.68;;
47778;SDS011;33538;48.432;11.350;2022-12-29T08:54:07;2.08;;;0.88;;
47778;SDS011;33538;48.432;11.350;2022-12-29T08:56:34;1.02;;;0.47;;
47778;SDS011;33538;48.432;11.350;2022-12-29T08:59:02;4.78;;;1.15;;
47778;SDS011;33538;48.432;11.350;2022-12-29T09:01:28;1.90;;;1.10;;
47778;SDS011;33538;48.432;11.350;2022-12-29T09:03:55;2.13;;;1.40;;
47778;SDS011;33538;48.432;11.350;2022-12-29T09:06:41;1.38;;;0.68;;
47778;SDS011;33538;48.432;11.350;2022-12-29T09:09:08;1.92;;;0.90;;
47778;SDS011;33538;48.432;11.350;2022-12-29T09:11:35;8.85;;;1.20;;
47778;SDS011;33538;48.432;11.350;2022-12-29T09:14:03;1.80;;;1.17;;
47778;SDS011;33538;48.432;11.350;2022-12-29T09:16:30;1.70;;;0.98;;
47778;SDS011;33538;48.432;11.350;2022-12-29T09:18:57;2.90;;;1.17;;
47778;SDS011;33538;48.432;11.350;2022-12-29T09:21:24;1.65;;;0.85;;
47778;SDS011;33538;48.432;11.350;2022-12-29T09:23:50;2.10;;;1.00;;
47778;SDS011;33538;48.432;11.350;2022-12-29T09:26:17;2.50;;;0.90;;
47778;SDS011;33538;48.432;11.350;2022-12-29T09:28:44;1.73;;;1.02;;
47778;SDS011;33538;48.432;11.350;2022-12-29T09:31:12;3.58;;;1.00;;
47778;SDS011;33538;48.432;11.350;2022-12-29T09:33:40;2.42;;;1.25;;
47778;SDS011;33538;48.432;11.350;2022-12-29T09:36:07;2.22;;;1.20;;
47778;SDS011;33538;48.432;11.350;2022-12-29T09:38:34;2.45;;;1.60;;
47778;SDS011;33538;48.432;11.350;2022-12-29T09:41:05;1.77;;;1.40;;
47778;SDS011;33538;48.432;11.350;2022-12-29T09:43:43;2.30;;;0.70;;
47778;SDS011;33538;48.432;11.350;2022-12-29T09:46:25;2.50;;;1.40;;
47778;SDS011;33538;48.432;11.350;2022-12-29T09:48:54;4.00;;;1.60;;
47778;SDS011;33538;48.432;11.350;2022-12-29T09:51:30;3.42;;;1.05;;
47778;SDS011;33538;48.432;11.350;2022-12-29T09:54:00;1.88;;;1.00;;
47778;SDS011;33538;48.432;11.350;2022-12-29T09:56:30;1.73;;;1.08;;
47778;SDS011;33538;48.432;11.350;2022-12-29T09:58:57;1.88;;;0.77;;
47778;SDS011;33538;48.432;11.350;2022-12-29T10:01:30;3.67;;;0.63;;
47778;SDS011;33538;48.432;11.350;2022-12-29T10:04:00;1.40;;;0.90;;
47778;SDS011;33538;48.432;11.350;2022-12-29T10:06:29;2.83;;;0.82;;
47778;SDS011;33538;48.432;11.350;2022-12-29T10:09:22;1.83;;;0.70;;
47778;SDS011;33538;48.432;11.350;2022-12-29T10:12:02;1.92;;;1.17;;
47778;SDS011;33538;48.432;11.350;2022-12-29T10:14:47;1.65;;;0.82;;
47778;SDS011;33538;48.432;11.350;2022-12-29T10:20:30;0.70;;;0.50;;
47778;SDS011;33538;48.432;11.350;2022-12-29T10:23:08;2.00;;;1.05;;
47778;SDS011;33538;48.432;11.350;2022-12-29T10:25:45;1.17;;;0.90;;
47778;SDS011;33538;48.432;11.350;2022-12-29T10:28:15;2.10;;;0.90;;
47778;SDS011;33538;48.432;11.350;2022-12-29T10:30:47;1.05;;;0.60;;
47778;SDS011;33538;48.432;11.350;2022-12-29T10:33:17;2.85;;;0.60;;
47778;SDS011;33538;48.432;11.350;2022-12-29T10:35:46;0.77;;;0.63;;
47778;SDS011;33538;48.432;11.350;2022-12-29T10:38:15;2.58;;;0.85;;
47778;SDS011;33538;48.432;11.350;2022-12-29T10:40:49;1.25;;;0.75;;
47778;SDS011;33538;48.432;11.350;2022-12-29T10:43:21;0.32;;;0.32;;
47778;SDS011;33538;48.432;11.350;2022-12-29T10:45:51;1.17;;;1.05;;
47778;SDS011;33538;48.432;11.350;2022-12-29T10:48:20;2.20;;;0.70;;
47778;SDS011;33538;48.432;11.350;2022-12-29T10:50:57;0.40;;;0.30;;
47778;SDS011;33538;48.432;11.350;2022-12-29T10:53:30;2.03;;;0.73;;
47778;SDS011;33538;48.432;11.350;2022-12-29T10:56:01;1.73;;;1.00;;
47778;SDS011;33538;48.432;11.350;2022-12-29T10:58:30;2.55;;;0.85;;
47778;SDS011;33538;48.432;11.350;2022-12-29T11:00:57;0.47;;;0.35;;
47778;SDS011;33538;48.432;11.350;2022-12-29T11:03:31;1.20;;;0.75;;
47778;SDS011;33538;48.432;11.350;2022-12-29T11:06:10;3.85;;;0.75;;
47778;SDS011;33538;48.432;11.350;2022-12-29T11:08:41;1.25;;;0.57;;
47778;SDS011;33538;48.432;11.350;2022-12-29T11:11:14;1.48;;;0.65;;
47778;SDS011;33538;48.432;11.350;2022-12-29T11:13:50;1.13;;;0.65;;
47778;SDS011;33538;48.432;11.350;2022-12-29T11:16:27;2.30;;;0.55;;
47778;SDS011;33538;48.432;11.350;2022-12-29T11:18:57;0.47;;;0.40;;
47778;SDS011;33538;48.432;11.350;2022-12-29T11:21:25;3.17;;;0.80;;
47778;SDS011;33538;48.432;11.350;2022-12-29T11:23:56;1.05;;;0.75;;
47778;SDS011;33538;48.432;11.350;2022-12-29T11:26:25;1.27;;;0.75;;
47778;SDS011;33538;48.432;11.350;2022-12-29T11:29:16;1.85;;;1.20;;
47778;SDS011;33538;48.432;11.350;2022-12-29T11:31:47;3.60;;;0.77;;
47778;SDS011;33538;48.432;11.350;2022-12-29T11:34:20;0.73;;;0.70;;
47778;SDS011;33538;48.432;11.350;2022-12-29T11:36:49;0.90;;;0.70;;
47778;SDS011;33538;48.432;11.350;2022-12-29T11:39:24;1.45;;;0.93;;
47778;SDS011;33538;48.432;11.350;2022-12-29T11:41:55;0.73;;;0.60;;
47778;SDS011;33538;48.432;11.350;2022-12-29T11:44:22;1.92;;;0.70;;
47778;SDS011;33538;48.432;11.350;2022-12-29T11:46:50;0.98;;;0.73;;
47778;SDS011;33538;48.432;11.350;2022-12-29T11:49:20;0.85;;;0.50;;
47778;SDS011;33538;48.432;11.350;2022-12-29T11:51:50;0.80;;;0.60;;
47778;SDS011;33538;48.432;11.350;2022-12-29T11:54:19;2.65;;;0.65;;
47778;SDS011;33538;48.432;11.350;2022-12-29T11:56:48;1.30;;;0.77;;
47778;SDS011;33538;48.432;11.350;2022-12-29T11:59:34;1.15;;;0.70;;
47778;SDS011;33538;48.432;11.350;2022-12-29T12:02:17;3.58;;;0.70;;
47778;SDS011;33538;48.432;11.350;2022-12-29T12:05:12;0.60;;;0.40;;
47778;SDS011;33538;48.432;11.350;2022-12-29T12:07:49;0.55;;;0.52;;
47778;SDS011;33538;48.432;11.350;2022-12-29T12:10:21;0.52;;;0.52;;
47778;SDS011;33538;48.432;11.350;2022-12-29T12:12:55;0.82;;;0.73;;
47778;SDS011;33538;48.432;11.350;2022-12-29T12:15:29;0.85;;;0.50;;
47778;SDS011;33538;48.432;11.350;2022-12-29T12:18:09;2.10;;;0.60;;
47778;SDS011;33538;48.432;11.350;2022-12-29T12:20:46;1.30;;;0.80;;
47778;SDS011;33538;48.432;11.350;2022-12-29T12:23:19;1.48;;;0.80;;
47778;SDS011;33538;48.432;11.350;2022-12-29T12:25:59;1.85;;;0.88;;
47778;SDS011;33538;48.432;11.350;2022-12-29T12:28:33;1.10;;;0.70;;
47778;SDS011;33538;48.432;11.350;2022-12-29T12:31:05;2.03;;;0.82;;
47778;SDS011;33538;48.432;11.350;2022-12-29T12:33:38;0.50;;;0.50;;
47778;SDS011;33538;48.432;11.350;2022-12-29T12:39:05;2.28;;;0.93;;
47778;SDS011;33538;48.432;11.350;2022-12-29T12:41:39;4.32;;;1.23;;
47778;SDS011;33538;48.432;11.350;2022-12-29T12:44:15;1.20;;;0.63;;
47778;SDS011;33538;48.432;11.350;2022-12-29T12:46:53;1.10;;;0.63;;
47778;SDS011;33538;48.432;11.350;2022-12-29T12:49:50;0.50;;;0.40;;
47778;SDS011;33538;48.432;11.350;2022-12-29T12:52:47;0.32;;;0.32;;
47778;SDS011;33538;48.432;11.350;2022-12-29T12:55:30;0.32;;;0.32;;
47778;SDS011;33538;48.432;11.350;2022-12-29T12:58:09;0.43;;;0.43;;
47778;SDS011;33538;48.432;11.350;2022-12-29T13:00:48;1.50;;;0.70;;
47778;SDS011;33538;48.432;11.350;2022-12-29T13:03:22;1.48;;;0.60;;
47778;SDS011;33538;48.432;11.350;2022-12-29T13:06:03;0.45;;;0.40;;
47778;SDS011;33538;48.432;11.350;2022-12-29T13:08:58;1.80;;;0.70;;
47778;SDS011;33538;48.432;11.350;2022-12-29T13:11:51;0.60;;;0.40;;
47778;SDS011;33538;48.432;11.350;2022-12-29T13:14:30;1.40;;;0.40;;
47778;SDS011;33538;48.432;11.350;2022-12-29T13:17:08;0.45;;;0.45;;
47778;SDS011;33538;48.432;11.350;2022-12-29T13:19:42;0.50;;;0.50;;
47778;SDS011;33538;48.432;11.350;2022-12-29T13:22:16;1.98;;;0.80;;
47778;SDS011;33538;48.432;11.350;2022-12-29T13:24:53;0.73;;;0.55;;
47778;SDS011;33538;48.432;11.350;2022-12-29T13:27:38;1.40;;;0.55;;
47778;SDS011;33538;48.432;11.350;2022-12-29T13:30:11;0.88;;;0.70;;
47778;SDS011;33538;48.432;11.350;2022-12-29T13:32:44;0.90;;;0.65;;
47778;SDS011;33538;48.432;11.350;2022-12-29T13:35:21;0.80;;;0.60;;
47778;SDS011;33538;48.432;11.350;2022-12-29T13:38:04;0.95;;;0.60;;
47778;SDS011;33538;48.432;11.350;2022-12-29T13:40:38;1.27;;;0.63;;
47778;SDS011;33538;48.432;11.350;2022-12-29T13:43:09;1.85;;;0.85;;
47778;SDS011;33538;48.432;11.350;2022-12-29T13:45:38;0.55;;;0.43;;
47778;SDS011;33538;48.432;11.350;2022-12-29T13:48:07;1.85;;;1.13;;
47778;SDS011;33538;48.432;11.350;2022-12-29T13:50:41;0.73;;;0.68;;
47778;SDS011;33538;48.432;11.350;2022-12-29T13:53:15;1.45;;;0.73;;
47778;SDS011;33538;48.432;11.350;2022-12-29T13:55:48;1.30;;;0.82;;
47778;SDS011;33538;48.432;11.350;2022-12-29T13:58:22;2.88;;;0.90;;
47778;SDS011;33538;48.432;11.350;2022-12-29T14:00:54;4.00;;;0.70;;
47778;SDS011;33538;48.432;11.350;2022-12-29T14:03:41;3.90;;;0.65;;
47778;SDS011;33538;48.432;11.350;2022-12-29T14:06:15;4.00;;;0.88;;
47778;SDS011;33538;48.432;11.350;2022-12-29T14:08:46;1.55;;;0.55;;
47778;SDS011;33538;48.432;11.350;2022-12-29T14:11:16;3.00;;;0.90;;
47778;SDS011;33538;48.432;11.350;2022-12-29T14:13:46;1.98;;;0.63;;
47778;SDS011;33538;48.432;11.350;2022-12-29T14:16:24;3.22;;;0.85;;
47778;SDS011;33538;48.432;11.350;2022-12-29T14:18:53;1.88;;;0.73;;
47778;SDS011;33538;48.432;11.350;2022-12-29T14:21:22;0.73;;;0.43;;
47778;SDS011;33538;48.432;11.350;2022-12-29T14:23:51;3.08;;;0.77;;
47778;SDS011;33538;48.432;11.350;2022-12-29T14:26:32;2.80;;;0.50;;
47778;SDS011;33538;48.432;11.350;2022-12-29T14:29:15;1.85;;;0.60;;
47778;SDS011;33538;48.432;11.350;2022-12-29T14:32:03;0.52;;;0.45;;
47778;SDS011;33538;48.432;11.350;2022-12-29T14:38:07;0.75;;;0.68;;
47778;SDS011;33538;48.432;11.350;2022-12-29T14:40:45;1.40;;;0.45;;
47778;SDS011;33538;48.432;11.350;2022-12-29T14:43:18;0.88;;;0.40;;
47778;SDS011;33538;48.432;11.350;2022-12-29T14:45:51;0.80;;;0.60;;
47778;SDS011;33538;48.432;11.350;2022-12-29T14:48:34;1.67;;;0.70;;
47778;SDS011;33538;48.432;11.350;2022-12-29T14:51:17;0.98;;;0.73;;
47778;SDS011;33538;48.432;11.350;2022-12-29T14:53:54;0.82;;;0.50;;
47778;SDS011;33538;48.432;11.350;2022-12-29T14:56:24;0.32;;;0.30;;
47778;SDS011;33538;48.432;11.350;2022-12-29T14:58:54;0.70;;;0.45;;
47778;SDS011;33538;48.432;11.350;2022-12-29T15:01:25;0.70;;;0.57;;
47778;SDS011;33538;48.432;11.350;2022-12-29T15:03:57;2.33;;;0.75;;
47778;SDS011;33538;48.432;11.350;2022-12-29T15:06:28;1.20;;;0.82;;
47778;SDS011;33538;48.432;11.350;2022-12-29T15:08:59;1.98;;;0.85;;